createdAt,value
2019-03-08T00:01:02.390Z,3.83
2019-03-08T00:03:31.755Z,3.97
2019-03-08T00:06:01.023Z,1.97
2019-03-08T00:08:30.314Z,2.53
2019-03-08T00:10:59.659Z,3.80
2019-03-08T00:13:29.870Z,3.03
2019-03-08T00:15:59.144Z,2.37
2019-03-08T00:18:28.431Z,3.93
2019-03-08T00:20:57.738Z,4.33
2019-03-08T00:23:27.015Z,3.30
2019-03-08T00:25:56.460Z,3.07
2019-03-08T00:28:25.756Z,3.00
2019-03-08T00:30:55.090Z,5.60
2019-03-08T00:33:24.382Z,6.07
2019-03-08T00:35:53.658Z,2.73
2019-03-08T00:38:22.950Z,3.37
2019-03-08T00:40:53.190Z,3.97
2019-03-08T00:43:22.486Z,1.83
2019-03-08T00:45:51.752Z,2.97
2019-03-08T00:48:21.043Z,2.17
2019-03-08T00:50:50.309Z,3.97
2019-03-08T00:53:19.886Z,2.80
2019-03-08T00:55:49.188Z,3.83
2019-03-08T00:58:18.474Z,3.37
2019-03-08T01:00:47.749Z,2.97
2019-03-08T01:03:17.051Z,4.70
2019-03-08T01:05:46.386Z,3.93
2019-03-08T01:08:15.685Z,2.87
2019-03-08T01:10:44.960Z,2.40
2019-03-08T01:13:14.247Z,2.80
2019-03-08T01:15:43.529Z,1.83
2019-03-08T01:18:12.813Z,4.23
2019-03-08T01:20:42.166Z,3.87
2019-03-08T01:23:11.481Z,2.77
2019-03-08T01:25:40.751Z,4.37
2019-03-08T01:28:11.642Z,3.13
2019-03-08T01:30:41.561Z,4.63
2019-03-08T01:33:11.222Z,4.20
2019-03-08T01:35:40.868Z,2.20
2019-03-08T01:38:10.206Z,1.80
2019-03-08T01:40:39.477Z,5.47
2019-03-08T01:43:08.755Z,3.63
2019-03-08T01:45:38.186Z,4.43
2019-03-08T01:48:07.732Z,6.30
2019-03-08T01:50:37.031Z,2.53
2019-03-08T01:53:17.772Z,2.73
2019-03-08T01:55:52.449Z,2.70
2019-03-08T01:58:21.722Z,1.97
2019-03-08T02:00:50.989Z,3.70
2019-03-08T02:03:20.345Z,2.97
2019-03-08T02:05:49.625Z,3.60
2019-03-08T02:08:18.913Z,2.80
2019-03-08T02:10:48.173Z,2.23
2019-03-08T02:13:17.741Z,3.93
2019-03-08T02:15:47.019Z,1.80
2019-03-08T02:18:16.298Z,3.37
2019-03-08T02:20:45.569Z,2.07
2019-03-08T02:23:14.850Z,2.17
2019-03-08T02:25:45.633Z,6.10
2019-03-08T02:28:16.049Z,1.67
2019-03-08T02:30:45.322Z,2.93
2019-03-08T02:33:14.605Z,2.23
2019-03-08T02:35:44.842Z,2.47
2019-03-08T02:38:14.153Z,1.93
2019-03-08T02:40:43.714Z,2.20
2019-03-08T02:43:15.145Z,4.20
2019-03-08T02:45:44.479Z,1.40
2019-03-08T02:48:13.754Z,2.27
2019-03-08T02:50:43.105Z,2.40
2019-03-08T02:53:12.370Z,2.63
2019-03-08T02:55:41.654Z,2.63
2019-03-08T02:58:10.924Z,1.03
2019-03-08T03:00:43.118Z,4.93
2019-03-08T03:03:12.452Z,3.43
2019-03-08T03:05:41.814Z,4.83
2019-03-08T03:08:11.077Z,2.97
2019-03-08T03:10:40.405Z,1.63
2019-03-08T03:13:09.677Z,4.00
2019-03-08T03:15:38.998Z,4.83
2019-03-08T03:18:08.265Z,4.57
2019-03-08T03:20:37.815Z,3.90
2019-03-08T03:23:07.165Z,3.97
2019-03-08T03:25:36.427Z,2.67
2019-03-08T03:28:05.718Z,5.07
2019-03-08T03:30:34.973Z,4.67
2019-03-08T03:33:04.288Z,3.67
2019-03-08T03:35:33.701Z,3.87
2019-03-08T03:38:02.995Z,3.60
2019-03-08T03:40:32.253Z,2.40
2019-03-08T03:43:01.684Z,4.73
2019-03-08T03:45:30.959Z,2.77
2019-03-08T03:48:00.308Z,2.80
2019-03-08T03:50:29.573Z,3.87
2019-03-08T03:52:58.870Z,2.87
2019-03-08T03:55:28.133Z,2.10
2019-03-08T03:57:57.400Z,2.70
2019-03-08T04:00:26.685Z,7.57
2019-03-08T04:02:56.324Z,4.23
2019-03-08T04:05:25.609Z,2.07
2019-03-08T04:07:54.881Z,5.97
2019-03-08T04:10:24.169Z,4.67
2019-03-08T04:12:53.441Z,3.00
2019-03-08T04:15:22.734Z,5.10
2019-03-08T04:17:51.997Z,4.47
2019-03-08T04:20:21.458Z,4.33
2019-03-08T04:22:50.717Z,2.50
2019-03-08T04:25:20.021Z,3.30
2019-03-08T04:27:49.361Z,5.00
2019-03-08T04:30:19.897Z,4.83
2019-03-08T04:32:49.187Z,5.73
2019-03-08T04:35:18.464Z,5.93
2019-03-08T04:37:47.753Z,4.10
2019-03-08T04:40:17.156Z,3.53
2019-03-08T04:42:46.436Z,4.07
2019-03-08T04:45:16.149Z,4.43
2019-03-08T04:47:45.437Z,6.37
2019-03-08T04:50:15.361Z,4.63
2019-03-08T04:52:44.680Z,4.70
2019-03-08T04:55:18.789Z,5.20
2019-03-08T04:57:48.341Z,3.43
2019-03-08T05:00:18.662Z,4.07
2019-03-08T05:02:47.942Z,3.03
2019-03-08T05:05:17.215Z,3.83
2019-03-08T05:07:46.497Z,6.30
2019-03-08T05:10:21.814Z,6.80
2019-03-08T05:12:51.118Z,5.93
2019-03-08T05:15:20.396Z,6.10
2019-03-08T05:17:49.699Z,6.27
2019-03-08T05:20:18.970Z,4.60
2019-03-08T05:22:48.274Z,4.47
2019-03-08T05:25:17.819Z,7.77
2019-03-08T05:27:47.114Z,6.70
2019-03-08T05:30:17.302Z,5.33
2019-03-08T05:32:46.647Z,4.00
2019-03-08T05:35:16.077Z,7.13
2019-03-08T05:37:46.729Z,5.20
2019-03-08T05:40:16.183Z,6.30
2019-03-08T05:42:46.544Z,4.47
2019-03-08T05:45:16.151Z,7.03
2019-03-08T05:47:45.424Z,2.63
2019-03-08T05:50:14.782Z,4.10
2019-03-08T05:52:45.293Z,5.90
2019-03-08T05:55:14.620Z,6.70
2019-03-08T05:57:43.885Z,4.43
2019-03-08T06:00:19.686Z,7.23
2019-03-08T06:02:49.000Z,8.80
2019-03-08T06:05:18.555Z,11.50
2019-03-08T06:07:47.825Z,7.13
2019-03-08T06:10:28.057Z,7.10
2019-03-08T06:12:58.825Z,5.63
2019-03-08T06:15:29.168Z,4.90
2019-03-08T06:17:58.710Z,6.67
2019-03-08T06:20:28.065Z,8.27
2019-03-08T06:22:57.414Z,5.97
2019-03-08T06:25:26.774Z,7.07
2019-03-08T06:27:56.034Z,5.53
2019-03-08T06:30:25.413Z,7.23
2019-03-08T06:32:54.958Z,10.77
2019-03-08T06:35:24.245Z,3.27
2019-03-08T06:37:53.530Z,7.67
2019-03-08T06:40:22.811Z,6.57
2019-03-08T06:42:52.097Z,6.97
2019-03-08T06:45:21.373Z,5.87
2019-03-08T06:47:50.664Z,9.03
2019-03-08T06:50:19.935Z,5.13
2019-03-08T06:52:49.221Z,5.83
2019-03-08T06:55:18.485Z,6.63
2019-03-08T06:57:50.846Z,9.23
2019-03-08T07:00:28.016Z,5.17
2019-03-08T07:02:57.307Z,5.03
2019-03-08T07:05:26.682Z,5.57
2019-03-08T07:07:55.954Z,8.60
2019-03-08T07:10:25.226Z,7.77
2019-03-08T07:13:02.866Z,6.87
2019-03-08T07:15:25.483Z,6.27
2019-03-08T07:17:54.761Z,6.73
2019-03-08T07:20:28.385Z,6.87
2019-03-08T07:23:05.097Z,8.93
2019-03-08T07:25:36.332Z,7.10
2019-03-08T07:28:07.238Z,3.10
2019-03-08T07:30:40.685Z,8.50
2019-03-08T07:33:11.593Z,2.90
2019-03-08T07:35:45.548Z,4.00
2019-03-08T07:38:19.203Z,6.27
2019-03-08T07:40:50.097Z,7.87
2019-03-08T07:43:29.769Z,6.80
2019-03-08T07:46:03.620Z,9.43
2019-03-08T07:48:34.554Z,5.20
2019-03-08T07:51:08.293Z,7.23
2019-03-08T07:53:45.078Z,7.07
2019-03-08T07:56:18.444Z,5.97
2019-03-08T07:59:04.048Z,6.17
2019-03-08T08:01:40.705Z,8.37
2019-03-08T08:04:14.309Z,4.60
2019-03-08T08:06:45.390Z,8.87
2019-03-08T08:09:32.532Z,6.43
2019-03-08T08:12:09.125Z,4.63
2019-03-08T08:14:40.065Z,4.30
2019-03-08T08:17:19.902Z,5.63
2019-03-08T08:19:56.787Z,4.80
2019-03-08T08:22:30.189Z,7.50
2019-03-08T08:25:02.361Z,7.60
2019-03-08T08:27:43.019Z,7.20
2019-03-08T08:30:18.711Z,4.67
2019-03-08T08:33:04.400Z,5.73
2019-03-08T08:35:35.335Z,6.90
2019-03-08T08:38:11.786Z,10.57
2019-03-08T08:40:51.829Z,8.17
2019-03-08T08:43:39.006Z,4.97
2019-03-08T08:46:09.933Z,7.77
2019-03-08T08:48:40.845Z,7.73
2019-03-08T08:51:11.788Z,6.87
2019-03-08T08:53:42.697Z,6.33
2019-03-08T08:56:29.664Z,5.80
2019-03-08T08:59:09.641Z,5.80
2019-03-08T09:01:49.101Z,5.67
2019-03-08T09:04:20.044Z,5.73
2019-03-08T09:06:50.974Z,4.10
2019-03-08T09:09:21.927Z,8.77
2019-03-08T09:11:53.205Z,6.63
2019-03-08T09:14:25.219Z,9.37
2019-03-08T09:17:01.914Z,7.37
2019-03-08T09:19:41.889Z,6.33
2019-03-08T09:22:12.839Z,6.20
2019-03-08T09:24:46.673Z,5.43
2019-03-08T09:27:29.140Z,4.57
2019-03-08T09:30:08.672Z,4.63
2019-03-08T09:32:48.411Z,6.77
2019-03-08T09:35:22.253Z,4.70
2019-03-08T09:37:55.885Z,8.50
2019-03-08T09:40:27.033Z,6.43
2019-03-08T09:43:00.748Z,6.53
2019-03-08T09:45:31.648Z,5.73
2019-03-08T09:48:18.657Z,8.87
2019-03-08T09:50:52.030Z,10.70
2019-03-08T09:53:35.037Z,6.83
2019-03-08T09:56:18.907Z,6.73
2019-03-08T09:59:05.822Z,6.63
2019-03-08T10:01:53.035Z,7.30
2019-03-08T10:04:40.078Z,7.47
2019-03-08T10:07:28.766Z,6.60
2019-03-08T10:10:17.777Z,5.23
2019-03-08T10:12:48.682Z,7.47
2019-03-08T10:15:30.626Z,9.70
2019-03-08T10:18:04.241Z,8.03
2019-03-08T10:20:35.137Z,4.23
2019-03-08T10:23:08.720Z,7.60
2019-03-08T10:25:42.304Z,7.57
2019-03-08T10:28:28.046Z,7.13
2019-03-08T10:31:16.951Z,6.37
2019-03-08T10:34:02.950Z,6.50
2019-03-08T10:36:39.757Z,6.67
2019-03-08T10:39:10.831Z,5.97
2019-03-08T10:41:50.697Z,5.30
2019-03-08T10:44:24.305Z,6.63
2019-03-08T10:47:04.153Z,5.00
2019-03-08T10:49:35.105Z,3.90
2019-03-08T10:52:17.096Z,4.87
2019-03-08T10:54:44.124Z,3.03
2019-03-08T10:57:16.000Z,4.20
2019-03-08T10:59:46.930Z,6.43
2019-03-08T11:02:23.306Z,3.30
2019-03-08T11:05:00.324Z,5.30
2019-03-08T11:07:45.801Z,5.53
2019-03-08T11:10:16.948Z,5.97
2019-03-08T11:12:47.845Z,4.67
2019-03-08T11:15:25.077Z,3.13
2019-03-08T11:17:56.025Z,3.67
2019-03-08T11:20:30.291Z,3.67
2019-03-08T11:23:19.310Z,2.30
2019-03-08T11:26:05.226Z,2.80
2019-03-08T11:28:36.133Z,2.50
2019-03-08T11:31:11.749Z,1.97
2019-03-08T11:33:58.525Z,4.07
2019-03-08T11:36:31.953Z,2.87
2019-03-08T11:39:08.835Z,0.80
2019-03-08T11:41:43.113Z,1.07
2019-03-08T11:44:14.050Z,1.80
2019-03-08T11:46:44.987Z,1.47
2019-03-08T11:49:24.943Z,1.80
2019-03-08T11:52:10.709Z,1.00
2019-03-08T11:54:47.316Z,1.80
2019-03-08T11:57:27.233Z,2.93
2019-03-08T12:00:07.178Z,2.47
2019-03-08T12:02:40.897Z,3.00
2019-03-08T12:05:21.054Z,1.50
2019-03-08T12:08:04.697Z,0.80
2019-03-08T12:10:44.701Z,0.93
2019-03-08T12:13:18.533Z,1.00
2019-03-08T12:16:01.545Z,2.20
2019-03-08T12:18:44.488Z,0.70
2019-03-08T12:21:15.451Z,1.37
2019-03-08T12:23:55.597Z,2.40
2019-03-08T12:26:36.185Z,1.43
2019-03-08T12:29:12.797Z,0.80
2019-03-08T12:31:46.937Z,1.43
2019-03-08T12:34:26.666Z,0.70
2019-03-08T12:36:57.581Z,0.97
2019-03-08T12:39:31.440Z,0.70
2019-03-08T12:42:14.234Z,2.00
2019-03-08T12:44:46.119Z,2.20
2019-03-08T12:47:23.018Z,1.10
2019-03-08T12:49:59.628Z,1.80
2019-03-08T12:52:30.589Z,1.27
2019-03-08T12:55:01.497Z,3.40
2019-03-08T12:57:50.272Z,1.30
2019-03-08T13:00:21.433Z,1.30
2019-03-08T13:02:55.346Z,2.47
2019-03-08T13:05:29.301Z,3.13
2019-03-08T13:08:12.353Z,2.33
2019-03-08T13:10:41.693Z,0.70
2019-03-08T13:13:12.992Z,2.67
2019-03-08T13:15:41.949Z,1.23
2019-03-08T13:18:11.237Z,1.30
2019-03-08T13:20:40.508Z,2.57
2019-03-08T13:23:09.801Z,3.83
2019-03-08T13:25:39.099Z,5.10
2019-03-08T13:28:08.370Z,3.33
2019-03-08T13:30:37.673Z,0.77
2019-03-08T13:33:06.941Z,1.23
2019-03-08T13:35:36.519Z,2.87
2019-03-08T13:38:06.978Z,1.43
2019-03-08T13:40:36.373Z,1.43
2019-03-08T13:43:05.653Z,1.40
2019-03-08T13:45:34.932Z,1.17
2019-03-08T13:48:04.276Z,3.40
2019-03-08T13:50:33.709Z,1.97
2019-03-08T13:53:02.990Z,2.60
2019-03-08T13:55:32.277Z,0.97
2019-03-08T13:58:01.545Z,2.43
2019-03-08T14:00:30.851Z,1.57
2019-03-08T14:03:00.127Z,2.37
2019-03-08T14:05:29.432Z,1.10
2019-03-08T14:07:58.697Z,2.87
2019-03-08T14:10:28.958Z,1.20
2019-03-08T14:12:58.266Z,3.33
2019-03-08T14:15:27.541Z,4.07
2019-03-08T14:17:57.017Z,2.97
2019-03-08T14:20:27.473Z,2.57
2019-03-08T14:22:56.749Z,2.47
2019-03-08T14:25:27.014Z,6.30
2019-03-08T14:27:56.291Z,4.27
2019-03-08T14:30:37.550Z,2.10
2019-03-08T14:33:06.919Z,3.93
2019-03-08T14:35:36.192Z,1.60
2019-03-08T14:38:07.103Z,3.07
2019-03-08T14:40:57.622Z,2.27
2019-03-08T14:43:29.186Z,3.90
2019-03-08T14:46:06.034Z,1.10
2019-03-08T14:48:35.336Z,1.60
2019-03-08T14:51:04.665Z,1.87
2019-03-08T14:53:34.408Z,1.17
2019-03-08T14:56:03.894Z,1.60
2019-03-08T14:58:36.779Z,2.90
2019-03-08T15:01:06.281Z,2.33
2019-03-08T15:03:43.141Z,1.60
2019-03-08T15:06:06.469Z,4.23
2019-03-08T15:08:35.769Z,2.53
2019-03-08T15:11:05.030Z,2.40
2019-03-08T15:13:34.313Z,2.60
2019-03-08T15:16:03.756Z,1.90
2019-03-08T15:18:33.059Z,2.37
2019-03-08T15:21:02.339Z,5.53
2019-03-08T15:23:31.627Z,2.37
2019-03-08T15:26:00.910Z,2.43
2019-03-08T15:28:30.372Z,4.57
2019-03-08T15:30:59.641Z,2.20
2019-03-08T15:33:28.942Z,4.00
2019-03-08T15:35:58.205Z,5.33
2019-03-08T15:38:27.646Z,4.43
2019-03-08T15:40:57.205Z,3.23
2019-03-08T15:43:26.507Z,2.20
2019-03-08T15:45:55.779Z,3.30
2019-03-08T15:48:25.145Z,3.77
2019-03-08T15:50:54.420Z,10.50
2019-03-08T15:53:23.726Z,3.93
2019-03-08T15:55:53.416Z,4.80
2019-03-08T15:58:22.754Z,2.83
2019-03-08T16:00:52.065Z,3.90
2019-03-08T16:03:21.325Z,4.43
2019-03-08T16:05:50.629Z,3.50
2019-03-08T16:08:19.913Z,2.60
2019-03-08T16:10:49.285Z,2.47
2019-03-08T16:13:18.557Z,2.40
2019-03-08T16:15:47.845Z,3.80
2019-03-08T16:18:17.932Z,3.63
2019-03-08T16:20:47.310Z,3.03
2019-03-08T16:23:16.570Z,1.53
2019-03-08T16:25:47.957Z,3.23
2019-03-08T16:28:16.824Z,3.20
2019-03-08T16:31:03.837Z,4.57
2019-03-08T16:33:43.585Z,2.93
2019-03-08T16:36:16.781Z,4.57
2019-03-08T16:38:47.607Z,2.60
2019-03-08T16:41:24.365Z,1.40
2019-03-08T16:43:55.061Z,2.23
2019-03-08T16:46:34.330Z,1.93
2019-03-08T16:49:14.794Z,2.43
2019-03-08T16:51:52.181Z,3.27
2019-03-08T16:54:25.557Z,1.07
2019-03-08T16:57:02.608Z,2.53
2019-03-08T16:59:33.582Z,2.20
2019-03-08T17:02:13.511Z,2.80
2019-03-08T17:04:56.156Z,5.33
2019-03-08T17:07:32.749Z,2.40
2019-03-08T17:10:06.364Z,4.30
2019-03-08T17:12:55.401Z,4.00
2019-03-08T17:15:28.859Z,3.47
2019-03-08T17:18:07.656Z,3.37
2019-03-08T17:20:55.904Z,3.40
2019-03-08T17:23:31.655Z,4.30
2019-03-08T17:26:07.146Z,5.73
2019-03-08T17:28:39.699Z,4.07
2019-03-08T17:31:11.138Z,5.63
2019-03-08T17:33:51.549Z,4.57
2019-03-08T17:36:28.765Z,3.70
2019-03-08T17:39:00.150Z,3.97
2019-03-08T17:41:49.456Z,3.83
2019-03-08T17:44:27.933Z,4.13
2019-03-08T17:47:02.284Z,5.07
2019-03-08T17:49:49.552Z,4.53
2019-03-08T17:52:23.290Z,3.33
2019-03-08T17:55:00.341Z,5.90
2019-03-08T17:57:31.362Z,6.13
2019-03-08T18:00:02.341Z,5.10
2019-03-08T18:02:37.430Z,4.27
2019-03-08T18:05:25.074Z,5.17
2019-03-08T18:08:12.057Z,4.63
2019-03-08T18:10:43.002Z,5.90
2019-03-08T18:13:14.021Z,9.00
2019-03-08T18:15:48.935Z,3.63
2019-03-08T18:18:19.929Z,5.57
2019-03-08T18:20:53.761Z,5.30
2019-03-08T18:23:44.533Z,6.80
2019-03-08T18:26:17.801Z,4.47
2019-03-08T18:28:48.737Z,3.07
2019-03-08T18:31:28.446Z,7.27
2019-03-08T18:33:59.353Z,4.23
2019-03-08T18:36:32.724Z,3.87
2019-03-08T18:39:08.514Z,3.70
2019-03-08T18:41:55.416Z,5.67
2019-03-08T18:44:29.136Z,6.10
2019-03-08T18:47:02.523Z,3.63
2019-03-08T18:49:45.412Z,5.23
2019-03-08T18:52:32.429Z,7.30
2019-03-08T18:55:15.478Z,5.03
2019-03-08T18:57:46.938Z,5.53
2019-03-08T19:00:34.261Z,4.70
2019-03-08T19:03:05.182Z,4.93
2019-03-08T19:06:00.871Z,4.93
2019-03-08T19:08:43.921Z,4.73
2019-03-08T19:11:17.645Z,5.27
2019-03-08T19:13:54.402Z,6.37
2019-03-08T19:16:34.193Z,5.97
2019-03-08T19:19:07.665Z,3.70
2019-03-08T19:21:44.430Z,4.97
2019-03-08T19:24:30.178Z,4.10
2019-03-08T19:27:19.213Z,3.73
2019-03-08T19:30:06.637Z,3.50
2019-03-08T19:32:46.130Z,5.43
2019-03-08T19:35:17.075Z,3.80
2019-03-08T19:38:02.781Z,6.90
2019-03-08T19:40:42.523Z,5.07
2019-03-08T19:43:16.377Z,4.73
2019-03-08T19:45:59.446Z,4.50
2019-03-08T19:48:36.207Z,7.53
2019-03-08T19:51:10.085Z,8.57
2019-03-08T19:53:47.303Z,4.60
2019-03-08T19:56:18.206Z,7.30
2019-03-08T19:58:51.852Z,9.57
2019-03-08T20:01:34.612Z,7.77
2019-03-08T20:04:05.586Z,7.03
2019-03-08T20:06:36.493Z,8.50
2019-03-08T20:09:12.405Z,7.80
2019-03-08T20:11:58.306Z,6.60
2019-03-08T20:14:38.362Z,8.87
2019-03-08T20:17:09.285Z,7.60
2019-03-08T20:19:40.314Z,6.47
2019-03-08T20:22:11.226Z,6.10
2019-03-08T20:24:47.799Z,11.33
2019-03-08T20:27:21.465Z,7.00
2019-03-08T20:30:08.514Z,6.40
2019-03-08T20:32:43.477Z,7.40
2019-03-08T20:35:30.949Z,5.60
2019-03-08T20:38:02.039Z,6.13
2019-03-08T20:40:35.719Z,5.43
2019-03-08T20:43:06.707Z,7.10
2019-03-08T20:45:53.667Z,4.70
2019-03-08T20:48:22.932Z,6.90
2019-03-08T20:50:52.227Z,8.30
2019-03-08T20:53:21.660Z,6.37
2019-03-08T20:55:50.929Z,8.10
2019-03-08T20:58:20.213Z,5.87
2019-03-08T21:00:49.483Z,6.03
2019-03-08T21:03:18.853Z,5.77
2019-03-08T21:05:48.135Z,6.77
2019-03-08T21:08:17.449Z,5.17
2019-03-08T21:10:46.800Z,6.40
2019-03-08T21:13:16.072Z,4.20
2019-03-08T21:15:45.341Z,4.10
2019-03-08T21:18:14.636Z,8.23
2019-03-08T21:20:45.830Z,6.53
2019-03-08T21:23:15.208Z,5.53
2019-03-08T21:25:44.653Z,3.97
2019-03-08T21:28:13.965Z,4.23
2019-03-08T21:30:43.261Z,3.87
2019-03-08T21:33:12.803Z,4.63
2019-03-08T21:35:42.893Z,6.53
2019-03-08T21:38:12.234Z,6.60
2019-03-08T21:40:41.500Z,7.33
2019-03-08T21:43:10.785Z,6.87
2019-03-08T21:45:40.434Z,6.10
2019-03-08T21:48:09.905Z,4.17
2019-03-08T21:50:39.390Z,5.17
2019-03-08T21:53:08.756Z,3.33
2019-03-08T21:55:38.106Z,6.77
2019-03-08T21:58:08.022Z,6.20
2019-03-08T22:00:37.290Z,3.40
2019-03-08T22:03:06.648Z,4.67
2019-03-08T22:05:37.636Z,5.60
2019-03-08T22:08:14.027Z,9.23
2019-03-08T22:10:43.563Z,5.47
2019-03-08T22:13:14.125Z,4.60
2019-03-08T22:15:43.393Z,5.97
2019-03-08T22:18:12.676Z,3.37
2019-03-08T22:20:41.941Z,4.03
2019-03-08T22:23:11.243Z,3.47
2019-03-08T22:25:40.575Z,3.90
2019-03-08T22:28:09.869Z,4.37
2019-03-08T22:30:40.105Z,9.00
2019-03-08T22:33:09.377Z,7.13
2019-03-08T22:35:38.941Z,5.63
2019-03-08T22:38:08.781Z,4.67
2019-03-08T22:40:38.065Z,4.47
2019-03-08T22:43:07.330Z,3.97
2019-03-08T22:45:36.629Z,6.93
2019-03-08T22:48:06.175Z,6.00
2019-03-08T22:50:35.456Z,5.50
2019-03-08T22:53:04.731Z,3.37
2019-03-08T22:55:34.025Z,4.23
2019-03-08T22:58:03.300Z,6.30
2019-03-08T23:00:40.026Z,7.50
2019-03-08T23:03:10.907Z,5.47
2019-03-08T23:05:40.250Z,4.73
2019-03-08T23:08:09.597Z,5.30
2019-03-08T23:10:38.865Z,2.83
2019-03-08T23:13:08.347Z,6.50
2019-03-08T23:15:37.647Z,4.67
2019-03-08T23:18:06.933Z,5.47
2019-03-08T23:20:36.206Z,3.13
2019-03-08T23:23:05.489Z,4.97
2019-03-08T23:25:34.756Z,4.53
2019-03-08T23:28:17.490Z,5.33
2019-03-08T23:30:48.476Z,6.60
2019-03-08T23:33:17.752Z,3.30
2019-03-08T23:35:47.008Z,5.07
2019-03-08T23:38:16.303Z,5.47
2019-03-08T23:40:45.561Z,4.27
2019-03-08T23:43:14.869Z,5.23
2019-03-08T23:45:44.157Z,4.20
2019-03-08T23:48:13.437Z,4.50
2019-03-08T23:50:42.725Z,4.60
2019-03-08T23:53:11.994Z,4.07
2019-03-08T23:55:41.279Z,4.77
2019-03-08T23:58:10.549Z,3.00
